Flight Track Log - Related Links

Times and Time Zones

All times are in EDT time to prevent confusion due to time zone crossing. See the USC3011 flight status page for this flight to view local times or setup timezone preferences in your user account.

Time Position Orientation Groundspeed Altitude Reporting Facility
EDT Latitude Longitude Course Direction KTS MPH feet Rate Location/Type
Tue 02:57:41 PM 26.2117 -80.1822 311° West 143 165 2,500  Level Miami Center
Tue 02:58:42 PM 26.2447 -80.1992 335° Northwest 121 139 4,000 237 Climbing Miami Center
Tue 03:00:00 PM 26.3028 -80.1670 26° Northeast  Level FlightAware Approximate
Tue 03:07:00 PM 26.6483 -80.0876 12° North  Level FlightAware Approximate
Tue 03:08:00 PM 26.6929 -80.1021 328° Northwest  Level FlightAware Approximate
Tue 03:09:00 PM 26.7350 -80.1320 328° Northwest  Level FlightAware Approximate
Tue 03:10:00 PM 26.7770 -80.1620 327° Northwest  Level FlightAware Approximate
Tue 03:11:00 PM 26.8179 -80.1943 325° Northwest  Level FlightAware Approximate
Tue 03:12:00 PM 26.8587 -80.2268 325° Northwest  Level FlightAware Approximate
Tue 03:12:28 PM 26.8928 -80.4411 324° Northwest 194 223 6,000  Level Miami Center
Tue 03:13:00 PM 26.8994 -80.2593 325° Northwest  Level FlightAware Approximate
Tue 03:13:28 PM 26.9469 -80.4497 352° North 202 232 5,400  Level Miami Center
Tue 03:14:00 PM 26.9401 -80.2919 325° Northwest  Level FlightAware Approximate
Tue 03:14:28 PM 27.0094 -80.4494 360° North 223 257 5,000  Level Miami Center
Tue 03:15:00 PM 26.9808 -80.3244 325° Northwest  Level FlightAware Approximate
Tue 03:15:28 PM 27.0656 -80.4558 354° North 204 235 5,000  Level Miami Center
Tue 03:16:00 PM 27.0215 -80.3570 324° Northwest  Level FlightAware Approximate
Tue 03:16:28 PM 27.1178 -80.4644 352° North 193 222 5,000  Level Miami Center
Tue 03:17:28 PM 27.1656 -80.4731 351° North 193 222 5,000 50 Level Miami Center
Tue 03:18:28 PM 27.2175 -80.4792 354° North 193 222 5,100  Climbing Miami Center
Tue 03:19:28 PM 27.2733 -80.5019 340° North 193 222 5,000 -50 Descending Miami Center
Tue 03:20:28 PM 27.3250 -80.5247 339° North 193 222 5,000  Level Miami Center
Tue 03:21:28 PM 27.3706 -80.5425 341° North 188 216 5,000  Level Miami Center
Tue 03:22:28 PM 27.4219 -80.5675 337° Northwest 188 216 5,000  Level Miami Center
Tue 03:23:28 PM 27.4733 -80.5972 333° Northwest 193 222 5,000  Level Miami Center
Tue 03:24:28 PM 27.5164 -80.6339 323° Northwest 193 222 5,000  Level Miami Center
Tue 03:25:28 PM 27.5528 -80.6772 313° West 188 216 5,000  Level Miami Center
Tue 03:26:28 PM 27.5850 -80.7181 312° West 194 223 5,000  Level Miami Center
Tue 03:27:28 PM 27.6256 -80.7639 315° West 194 223 5,000  Level Miami Center
Tue 03:28:27 PM 27.6642 -80.8075 315° West 199 229 5,000  Level Miami Center
Tue 03:29:28 PM 27.7047 -80.8511 316° Northwest 199 229 5,000  Level Miami Center
Tue 03:31:44 PM 27.8000 -80.9500 317° Northwest 196 226 5,000  Level Orlando TRACON
Tue 03:32:50 PM 27.8333 -81.0000 307° West 193 222 5,000  Level Orlando TRACON
Tue 03:33:50 PM 27.8667 -81.0333 319° Northwest 194 223 5,000  Level Orlando TRACON
Tue 03:34:44 PM 27.9167 -81.0833 319° Northwest 197 227 5,000  Level Orlando TRACON
Tue 03:35:44 PM 27.9500 -81.1167 319° Northwest 197 227 5,000  Level Orlando TRACON
Tue 03:36:44 PM 27.9833 -81.1667 307° West 202 232 5,000 53 Level Orlando TRACON
Tue 03:37:38 PM 28.0333 -81.1667 360° North 194 223 5,100 -368 Climbing Orlando TRACON
Tue 03:38:38 PM 28.0667 -81.2167 307° West 207 238 4,300 -1,000 Descending Orlando TRACON
Tue 03:39:38 PM 28.0833 -81.2833 286° West 221 254 3,100 -650 Descending Orlando TRACON
Tue 03:40:38 PM 28.1000 -81.3500 286° West 188 216 3,000 -50 Descending Orlando TRACON
Tue 03:41:38 PM 28.1333 -81.3833 319° Northwest 195 224 3,000  Level Orlando TRACON
Tue 03:42:38 PM 28.1833 -81.4167 330° Northwest 192 221 3,000  Level Orlando TRACON
Tue 03:43:38 PM 28.2167 -81.4500 319° Northwest 192 221 3,000 -95 Level Orlando TRACON
Tue 03:44:44 PM 28.2833 -81.4833 336° Northwest 194 223 2,800 -286 Descending Orlando TRACON
Tue 03:45:44 PM 28.3333 -81.4833 360° North 198 228 2,400 -400 Descending Orlando TRACON

Login

Don't have an account? Register now (free) for customized features, flight alerts, and more!